Time;durP1;ratioP1;P1;durP2;ratioP2;P2;SDS_P1;SDS_P2;PMS_P1;PMS_P2;Temp;Humidity;BMP_temperature;BMP_pressure;BME280_temperature;BME280_humidity;BME280_pressure;Samples;Min_cycle;Max_cycle;Signal;HPM_P1;HPM_P2
2021/10/27 00:00:28;;;;;;;;;7.33;6.33;;;;;15.66;63.38;101928.22;2091531;28;47966;-52
2021/10/27 00:01:29;;;;;;;;;6.67;6.67;;;;;15.65;63.38;101929.16;2091397;28;47194;-49
2021/10/27 00:02:29;;;;;;;;;5.33;5.33;;;;;15.64;63.41;101925.59;2082881;28;48111;-51
2021/10/27 00:03:30;;;;;;;;;7.67;7.67;;;;;15.64;63.88;101928.25;2082788;28;46133;-52
2021/10/27 00:04:30;;;;;;;;;8.33;8.33;;;;;15.64;63.47;101927.38;2086405;28;47358;-52
2021/10/27 00:05:31;;;;;;;;;7.67;7.33;;;;;15.63;63.64;101929.19;2089000;28;47072;-49
2021/10/27 00:06:31;;;;;;;;;6.67;6.00;;;;;15.63;63.63;101923.84;2091708;28;48310;-51
2021/10/27 00:07:32;;;;;;;;;7.33;7.33;;;;;15.62;63.66;101932.75;2091644;28;47213;-50
2021/10/27 00:08:33;;;;;;;;;7.33;6.33;;;;;15.62;63.63;101922.03;2082682;28;48324;-53
2021/10/27 00:09:33;;;;;;;;;8.00;8.00;;;;;15.63;63.94;101922.94;2074480;28;47357;-52
2021/10/27 00:10:34;;;;;;;;;7.67;7.67;;;;;15.62;63.46;101930.06;2083467;28;46739;-51
2021/10/27 00:11:35;;;;;;;;;7.00;7.00;;;;;15.62;63.91;101927.41;2090869;28;48072;-50
2021/10/27 00:12:36;;;;;;;;;8.33;6.67;;;;;15.62;63.45;101924.72;2082857;28;48072;-49
2021/10/27 00:13:37;;;;;;;;;8.25;7.25;;;;;15.62;63.91;101923.84;2082663;28;46285;-48
2021/10/27 00:14:38;;;;;;;;;6.00;6.00;;;;;15.60;63.44;101924.75;2082441;28;48385;-49
2021/10/27 00:15:38;;;;;;;;;6.33;6.33;;;;;15.60;63.96;101932.78;2082673;28;48320;-48
2021/10/27 00:16:39;;;;;;;;;6.33;6.33;;;;;15.61;63.41;101933.66;2091633;28;45324;-51
2021/10/27 00:17:39;;;;;;;;;8.00;8.00;;;;;15.60;63.80;101929.22;2082575;28;48369;-49
2021/10/27 00:18:40;;;;;;;;;9.67;8.00;;;;;15.59;63.59;101931.03;2082553;28;48008;-52
2021/10/27 00:19:40;;;;;;;;;8.00;8.00;;;;;15.59;63.65;101930.13;2091580;28;47724;-48
2021/10/27 00:20:41;;;;;;;;;6.67;6.67;;;;;15.58;63.59;101928.34;2091559;28;48496;-53
2021/10/27 00:21:41;;;;;;;;;6.67;6.00;;;;;15.59;63.93;101932.78;2085619;28;47343;-49
2021/10/27 00:22:43;;;;;;;;;5.33;5.33;;;;;15.57;63.65;101924.81;2091593;28;47057;-48
2021/10/27 00:23:44;;;;;;;;;6.50;5.00;;;;;15.58;63.71;101934.59;2082346;28;47161;-50
2021/10/27 00:24:44;;;;;;;;;8.33;8.33;;;;;15.57;63.89;101930.16;2074487;28;48375;-52
2021/10/27 00:25:45;;;;;;;;;8.00;7.00;;;;;15.57;63.95;101931.94;2082410;28;47399;-51
2021/10/27 00:26:45;;;;;;;;;7.67;7.67;;;;;15.57;63.68;101934.63;2091799;28;48017;-51
2021/10/27 00:27:46;;;;;;;;;5.33;4.67;;;;;15.56;63.49;101940.91;2091502;28;46438;-55
2021/10/27 00:28:46;;;;;;;;;6.67;6.67;;;;;15.55;63.59;101934.66;2082830;28;46988;-49
2021/10/27 00:29:47;;;;;;;;;5.67;5.67;;;;;15.55;63.49;101931.09;2073963;28;47012;-52
2021/10/27 00:30:47;;;;;;;;;6.00;6.00;;;;;15.55;63.94;101939.13;2080978;28;47226;-48
2021/10/27 00:31:47;;;;;;;;;8.00;7.00;;;;;15.54;63.53;101935.59;2091253;28;47559;-53
2021/10/27 00:32:49;;;;;;;;;6.67;6.67;;;;;15.53;63.83;101936.50;2091861;28;47382;-52
2021/10/27 00:33:50;;;;;;;;;7.00;7.00;;;;;15.52;63.50;101932.06;2091289;28;47351;-49
2021/10/27 00:34:50;;;;;;;;;7.67;7.67;;;;;15.53;63.88;101943.66;2091680;28;47058;-50
2021/10/27 00:35:51;;;;;;;;;6.67;6.67;;;;;15.52;64.03;101940.09;2091240;28;47266;-51
2021/10/27 00:36:51;;;;;;;;;7.67;6.00;;;;;15.52;64.04;101939.22;2082743;28;47458;-51
2021/10/27 00:37:52;;;;;;;;;7.33;7.33;;;;;15.51;63.82;101935.66;2082207;28;47909;-50
2021/10/27 00:38:52;;;;;;;;;9.67;8.67;;;;;15.50;63.64;101936.56;2082636;28;47524;-50
2021/10/27 00:39:53;;;;;;;;;8.67;7.67;;;;;15.50;63.78;101933.91;2087288;28;46328;-52
2021/10/27 00:40:54;;;;;;;;;7.25;7.25;;;;;15.50;63.34;101941.00;2093646;28;48141;-52
2021/10/27 00:41:54;;;;;;;;;5.67;5.00;;;;;15.49;64.06;101934.78;2094475;28;47011;-51
2021/10/27 00:42:56;;;;;;;;;8.67;7.33;;;;;15.49;63.51;101942.81;2091473;28;46998;-50
2021/10/27 00:43:56;;;;;;;;;7.75;7.75;;;;;15.49;63.55;101941.94;2091376;28;47295;-53
2021/10/27 00:44:57;;;;;;;;;7.00;7.00;;;;;15.49;63.90;101939.25;2082549;28;47331;-53
2021/10/27 00:45:58;;;;;;;;;9.75;8.50;;;;;15.48;63.61;101937.50;2074027;28;47191;-51
2021/10/27 00:47:01;;;;;;;;;7.67;7.67;;;;;15.48;63.61;101937.50;2075610;28;48161;-53
2021/10/27 00:48:02;;;;;;;;;7.75;7.75;;;;;15.47;63.76;101939.28;2090684;28;47271;-52
2021/10/27 00:49:02;;;;;;;;;7.00;7.00;;;;;15.47;63.61;101938.41;2082716;28;48247;-50
2021/10/27 00:50:04;;;;;;;;;7.67;7.67;;;;;15.45;63.44;101938.47;2082470;28;45990;-52
2021/10/27 00:51:05;;;;;;;;;7.00;6.75;;;;;15.46;63.86;101933.97;2087655;28;47058;-50
2021/10/27 00:52:10;;;;;;;;;8.00;7.00;;;;;15.45;63.46;101937.56;2091308;28;47181;-52
2021/10/27 00:53:10;;;;;;;;;9.00;7.50;;;;;15.46;63.68;101942.00;2091368;28;47553;-52
2021/10/27 00:54:11;;;;;;;;;5.33;5.33;;;;;15.45;63.72;101932.22;2091315;28;47723;-48
2021/10/27 00:55:13;;;;;;;;;10.00;9.00;;;;;15.43;63.81;101940.28;2091492;28;47332;-49
2021/10/27 00:56:16;;;;;;;;;8.00;8.00;;;;;15.44;63.61;101943.84;2091506;28;48292;-50
2021/10/27 00:57:21;;;;;;;;;8.75;8.75;;;;;15.43;64.04;101944.75;2091451;28;47352;-52
2021/10/27 00:58:21;;;;;;;;;12.00;7.50;;;;;15.42;63.97;101938.53;2093257;28;47173;-51
2021/10/27 00:59:23;;;;;;;;;9.00;9.00;;;;;15.42;63.72;101941.22;2094126;28;47121;-50
2021/10/27 01:00:24;;;;;;;;;8.75;7.75;;;;;15.41;63.66;101944.81;2093951;28;47358;-52
2021/10/27 01:01:25;;;;;;;;;10.50;8.75;;;;;15.41;63.76;101942.13;2094066;28;47200;-52
2021/10/27 01:02:25;;;;;;;;;10.33;10.00;;;;;15.41;63.82;101939.44;2094060;28;47276;-51
2021/10/27 01:03:27;;;;;;;;;9.00;8.00;;;;;15.40;63.97;101937.69;2093901;28;47934;-49
2021/10/27 01:04:27;;;;;;;;;10.00;9.00;;;;;15.40;63.64;101943.03;2089056;28;47328;-50
2021/10/27 01:05:29;;;;;;;;;9.00;9.00;;;;;15.41;63.89;101941.25;2091223;28;46983;-57
2021/10/27 01:06:30;;;;;;;;;6.00;6.00;;;;;15.40;63.46;101940.38;2085327;28;48484;-50
2021/10/27 01:07:31;;;;;;;;;7.67;7.67;;;;;15.39;63.90;101938.59;2084999;28;48493;-52
2021/10/27 01:08:32;;;;;;;;;8.00;8.00;;;;;15.39;63.68;101935.06;2094190;28;47220;-51
2021/10/27 01:09:34;;;;;;;;;8.50;8.25;;;;;15.38;63.64;101935.97;2093336;28;47378;-51
2021/10/27 01:10:35;;;;;;;;;7.25;7.25;;;;;15.37;64.10;101926.16;2093567;28;47196;-53
2021/10/27 01:11:37;;;;;;;;;8.67;8.67;;;;;15.36;63.80;101930.63;2093812;28;47946;-53
2021/10/27 01:12:38;;;;;;;;;8.00;8.00;;;;;15.35;63.77;101931.53;2094337;28;47197;-50
2021/10/27 01:13:38;;;;;;;;;7.50;7.50;;;;;15.36;63.91;101932.41;2093812;28;48273;-51
2021/10/27 01:14:44;;;;;;;;;9.00;9.00;;;;;15.34;63.87;101927.13;2085160;28;47083;-52
2021/10/27 01:15:44;;;;;;;;;11.25;10.75;;;;;15.34;63.49;101929.78;2085533;28;46336;-49
2021/10/27 01:16:46;;;;;;;;;9.67;7.67;;;;;15.33;63.72;101936.06;2094284;28;48272;-50
2021/10/27 01:17:47;;;;;;;;;8.25;8.25;;;;;15.33;63.92;101933.38;2093778;28;47365;-47
2021/10/27 01:18:47;;;;;;;;;8.67;6.67;;;;;15.32;63.67;101934.28;2085381;28;46082;-52
2021/10/27 01:19:57;;;;;;;;;8.00;7.33;;;;;15.30;64.07;101928.97;2076655;28;46237;-49
2021/10/27 01:20:57;;;;;;;;;8.25;8.00;;;;;15.29;63.85;101929.91;2086026;28;45273;-53
2021/10/27 01:21:58;;;;;;;;;11.67;8.33;;;;;15.29;63.96;101929.91;2093663;28;47760;-52
2021/10/27 01:22:59;;;;;;;;;9.00;8.67;;;;;15.28;63.97;101922.78;2089576;28;48266;-51
2021/10/27 01:24:00;;;;;;;;;11.67;10.00;;;;;15.29;64.26;101921.00;2085019;28;47102;-51
2021/10/27 01:25:04;;;;;;;;;10.75;10.75;;;;;15.28;63.70;101925.47;2085071;28;47460;-50
2021/10/27 01:26:06;;;;;;;;;12.00;10.25;;;;;15.28;64.26;101925.47;2079293;28;47429;-49
2021/10/27 01:27:07;;;;;;;;;9.25;8.75;;;;;15.27;63.98;101917.47;2085324;28;48106;-51
2021/10/27 01:28:08;;;;;;;;;9.67;8.67;;;;;15.26;63.65;101924.63;2093978;28;47122;-49
2021/10/27 01:29:08;;;;;;;;;8.33;7.00;;;;;15.26;64.09;101924.63;2094005;28;48138;-52
2021/10/27 01:30:11;;;;;;;;;10.67;8.00;;;;;15.25;63.82;101920.19;2084815;28;47086;-51
2021/10/27 01:31:13;;;;;;;;;11.00;9.00;;;;;15.24;63.84;101925.53;2085340;28;48264;-51
2021/10/27 01:32:26;;;;;;;;;8.25;8.25;;;;;15.23;64.07;101924.66;2094022;28;47832;-49
2021/10/27 01:33:27;;;;;;;;;7.50;7.50;;;;;15.24;64.04;101925.53;2093797;28;48086;-51
2021/10/27 01:34:27;;;;;;;;;9.00;8.00;;;;;15.23;63.67;101929.13;2093821;28;48012;-50
2021/10/27 01:35:28;;;;;;;;;9.00;9.00;;;;;15.22;64.09;101928.25;2094061;28;47166;-50
2021/10/27 01:36:29;;;;;;;;;10.67;10.33;;;;;15.23;64.27;101923.78;2093811;28;48823;-49
2021/10/27 01:37:30;;;;;;;;;8.50;8.50;;;;;15.21;63.85;101917.59;2093826;28;48200;-49
2021/10/27 01:38:35;;;;;;;;;9.00;8.00;;;;;15.21;64.27;101920.28;2085061;28;47053;-53
2021/10/27 01:39:35;;;;;;;;;12.00;10.25;;;;;15.20;64.05;101915.84;2090132;28;47303;-52
2021/10/27 01:40:36;;;;;;;;;8.67;6.67;;;;;15.20;64.07;101915.84;2102037;28;47152;-52
2021/10/27 01:41:36;;;;;;;;;10.00;9.67;;;;;15.19;63.95;101916.75;2093080;28;47370;-50
2021/10/27 01:42:37;;;;;;;;;10.00;7.67;;;;;15.19;63.74;101914.09;2083082;28;47055;-52
2021/10/27 01:43:53;;;;;;;;;10.75;10.00;;;;;15.19;64.25;101919.44;2076514;28;46892;-51
2021/10/27 01:44:54;;;;;;;;;7.75;7.75;;;;;15.18;63.76;101921.22;2093044;28;47548;-50
2021/10/27 01:45:54;;;;;;;;;10.33;9.00;;;;;15.18;64.13;101917.66;2092506;28;47897;-52
2021/10/27 01:46:54;;;;;;;;;12.33;8.67;;;;;15.16;64.18;101912.34;2094013;28;47995;-54
2021/10/27 01:47:55;;;;;;;;;9.67;9.67;;;;;15.16;64.20;101914.16;2088162;28;45962;-52
2021/10/27 01:49:01;;;;;;;;;9.00;8.00;;;;;15.15;64.33;101909.72;2085419;28;47987;-52
2021/10/27 01:50:02;;;;;;;;;14.50;10.50;;;;;15.15;63.95;101912.41;2085462;28;48305;-51
2021/10/27 01:51:03;;;;;;;;;8.75;8.00;;;;;15.14;64.25;101916.00;2078257;28;46950;-54
2021/10/27 01:52:05;;;;;;;;;9.33;8.67;;;;;15.13;64.26;101907.09;2084831;28;48022;-52
2021/10/27 01:53:06;;;;;;;;;11.00;10.50;;;;;15.13;63.75;101915.09;2085511;28;47430;-53
2021/10/27 01:54:06;;;;;;;;;13.67;12.67;;;;;15.13;64.04;101916.91;2085661;28;47904;-50
2021/10/27 01:55:07;;;;;;;;;10.67;10.67;;;;;15.13;63.80;101911.56;2085474;28;48231;-51
2021/10/27 01:56:08;;;;;;;;;9.50;8.75;;;;;15.12;64.29;101904.41;2085721;28;47269;-51
2021/10/27 01:57:10;;;;;;;;;9.33;9.33;;;;;15.11;64.22;101903.53;2085419;28;47249;-52
2021/10/27 01:58:11;;;;;;;;;10.00;8.25;;;;;15.11;64.26;101902.66;2085821;28;47492;-51
2021/10/27 01:59:11;;;;;;;;;12.33;12.33;;;;;15.10;64.13;101901.78;2084821;28;47924;-53
2021/10/27 02:00:12;;;;;;;;;11.67;11.67;;;;;15.11;63.80;101900.00;2085140;28;48185;-53
2021/10/27 02:01:13;;;;;;;;;13.25;13.00;;;;;15.10;64.00;101903.56;2084764;28;48236;-52
2021/10/27 02:02:14;;;;;;;;;11.67;9.67;;;;;15.10;64.15;101898.22;2085144;28;47186;-51
2021/10/27 02:03:14;;;;;;;;;12.33;11.33;;;;;15.09;64.35;101894.69;2089397;28;47536;-51
2021/10/27 02:04:15;;;;;;;;;11.67;11.00;;;;;15.09;64.07;101899.16;2093017;28;47159;-48
2021/10/27 02:05:15;;;;;;;;;9.00;9.00;;;;;15.07;64.08;101893.84;2096485;28;47257;-54
2021/10/27 02:06:16;;;;;;;;;11.67;11.33;;;;;15.07;64.05;101899.19;2085687;28;47372;-49
2021/10/27 02:07:17;;;;;;;;;9.00;9.00;;;;;15.07;64.35;101891.16;2085297;28;47267;-53
2021/10/27 02:08:17;;;;;;;;;10.67;10.00;;;;;15.07;64.37;101899.19;2085449;28;47231;-49
2021/10/27 02:09:17;;;;;;;;;11.67;11.67;;;;;15.07;64.57;101895.63;2085052;28;47899;-53
2021/10/27 02:10:18;;;;;;;;;11.33;11.33;;;;;15.05;64.18;101893.00;2078799;28;47100;-53
2021/10/27 02:11:20;;;;;;;;;12.00;11.00;;;;;15.05;64.04;101893.00;2083278;28;47184;-51
2021/10/27 02:12:20;;;;;;;;;11.20;10.20;;;;;15.05;64.59;101884.09;2084459;28;47158;-53
2021/10/27 02:13:20;;;;;;;;;10.75;8.75;;;;;15.04;64.57;101890.34;2083995;28;47934;-53
2021/10/27 02:14:21;;;;;;;;;12.00;10.33;;;;;15.04;64.29;101888.56;2084011;28;47483;-51
2021/10/27 02:15:22;;;;;;;;;9.50;8.00;;;;;15.04;64.50;101895.69;2083578;28;47046;-50
2021/10/27 02:16:25;;;;;;;;;10.00;10.00;;;;;15.01;64.39;101884.16;2083887;28;47248;-53
2021/10/27 02:17:26;;;;;;;;;10.75;10.75;;;;;15.01;64.06;101891.31;2084017;28;48118;-52
2021/10/27 02:18:26;;;;;;;;;13.67;12.00;;;;;15.01;64.31;101883.28;2083825;28;48013;-52
2021/10/27 02:19:27;;;;;;;;;13.00;12.67;;;;;15.00;64.02;101885.09;2075288;28;45399;-54
2021/10/27 02:20:27;;;;;;;;;7.33;7.33;;;;;14.99;64.15;101885.09;2083569;28;47179;-51
2021/10/27 02:21:28;;;;;;;;;12.33;12.33;;;;;14.99;64.21;101883.31;2085900;28;47977;-52
2021/10/27 02:22:28;;;;;;;;;11.67;9.33;;;;;15.00;64.08;101879.75;2079660;28;48339;-51
2021/10/27 02:23:28;;;;;;;;;11.00;10.00;;;;;15.00;64.16;101884.19;2083298;28;47017;-52
2021/10/27 02:24:29;;;;;;;;;11.33;9.00;;;;;14.99;64.18;101879.75;2092333;28;45171;-53
2021/10/27 02:25:29;;;;;;;;;10.33;9.67;;;;;14.98;64.18;101888.69;2092335;28;47305;-51
2021/10/27 02:26:30;;;;;;;;;9.33;9.33;;;;;14.99;63.96;101882.41;2083375;28;48140;-48
2021/10/27 02:27:30;;;;;;;;;10.67;10.67;;;;;14.97;64.37;101885.13;2083267;28;46840;-53
2021/10/27 02:28:31;;;;;;;;;11.33;10.67;;;;;14.98;64.31;101886.00;2085070;28;46805;-53
2021/10/27 02:29:31;;;;;;;;;12.00;10.33;;;;;14.96;64.05;101888.72;2092021;28;47375;-50
2021/10/27 02:30:33;;;;;;;;;7.67;7.67;;;;;14.97;64.19;101885.13;2083476;28;47127;-52
2021/10/27 02:31:33;;;;;;;;;10.50;10.50;;;;;14.96;64.49;101888.72;2083187;28;47043;-50
2021/10/27 02:32:34;;;;;;;;;9.67;9.67;;;;;14.95;64.45;101894.97;2082982;28;47328;-52
2021/10/27 02:33:34;;;;;;;;;8.33;8.33;;;;;14.95;64.40;101894.97;2083267;28;47974;-52
2021/10/27 02:34:35;;;;;;;;;11.00;11.00;;;;;14.95;64.49;101894.09;2092051;28;47303;-52
2021/10/27 02:35:35;;;;;;;;;11.33;10.00;;;;;14.95;64.55;101896.75;2092184;28;47666;-49
2021/10/27 02:36:36;;;;;;;;;10.33;8.67;;;;;14.94;64.31;101889.66;2083185;28;48226;-51
2021/10/27 02:37:36;;;;;;;;;11.00;8.00;;;;;14.95;64.73;101891.41;2083220;28;48081;-53
2021/10/27 02:38:37;;;;;;;;;10.67;10.67;;;;;14.95;64.41;101894.97;2083176;28;48310;-52
2021/10/27 02:39:38;;;;;;;;;9.75;9.25;;;;;14.93;64.50;101891.47;2083255;28;47097;-53
2021/10/27 02:40:38;;;;;;;;;7.67;7.67;;;;;14.93;64.26;101894.13;2092420;28;47215;-54
2021/10/27 02:41:39;;;;;;;;;9.00;7.00;;;;;14.93;64.22;101895.94;2080622;28;47207;-51
2021/10/27 02:42:40;;;;;;;;;9.67;9.67;;;;;14.93;64.31;101887.91;2082845;28;47165;-54
2021/10/27 02:43:41;;;;;;;;;9.25;9.25;;;;;14.93;64.27;101896.81;2083495;28;48638;-52
2021/10/27 02:44:41;;;;;;;;;10.33;10.33;;;;;14.92;64.08;101888.81;2089493;28;47201;-52
2021/10/27 02:45:46;;;;;;;;;11.00;10.00;;;;;14.92;64.37;101888.81;2090676;28;47257;-50
2021/10/27 02:46:47;;;;;;;;;10.00;10.00;;;;;14.90;64.24;101899.53;2084654;28;47371;-50
2021/10/27 02:47:47;;;;;;;;;9.67;9.67;;;;;14.90;64.56;101890.66;2079296;28;47203;-52
2021/10/27 02:48:47;;;;;;;;;10.00;9.67;;;;;14.89;64.41;101897.78;2082908;28;47276;-53
2021/10/27 02:49:48;;;;;;;;;11.67;10.33;;;;;14.89;64.15;101892.44;2091515;28;47015;-50
2021/10/27 02:50:48;;;;;;;;;10.33;10.33;;;;;14.89;64.56;101892.44;2091686;28;47231;-54
2021/10/27 02:51:49;;;;;;;;;10.00;10.00;;;;;14.88;64.57;101882.66;2083821;28;47972;-52
2021/10/27 02:52:49;;;;;;;;;9.33;9.33;;;;;14.88;64.47;101889.81;2082154;28;48315;-50
2021/10/27 02:53:50;;;;;;;;;9.33;9.33;;;;;14.88;64.22;101895.16;2083039;28;48266;-52
2021/10/27 02:54:50;;;;;;;;;11.67;11.67;;;;;14.86;64.32;101889.81;2092233;28;47285;-53
2021/10/27 02:55:51;;;;;;;;;9.00;9.00;;;;;14.84;64.46;101888.97;2091887;28;47434;-54
2021/10/27 02:56:51;;;;;;;;;10.33;10.00;;;;;14.85;64.38;101893.41;2092242;28;46831;-49
2021/10/27 02:57:52;;;;;;;;;9.00;9.00;;;;;14.85;64.50;101892.50;2091955;28;46974;-54
2021/10/27 02:58:52;;;;;;;;;9.67;9.67;;;;;14.83;64.37;101895.22;2092225;28;47084;-52
2021/10/27 02:59:53;;;;;;;;;9.00;9.00;;;;;14.83;64.42;101892.56;2091963;28;47422;-51
2021/10/27 03:00:53;;;;;;;;;8.00;8.00;;;;;14.84;64.67;101890.75;2092233;28;47153;-52
2021/10/27 03:01:53;;;;;;;;;6.33;6.33;;;;;14.83;64.51;101897.03;2091788;28;47351;-53
2021/10/27 03:02:55;;;;;;;;;10.67;8.33;;;;;14.82;64.77;101890.78;2092218;28;48035;-52
2021/10/27 03:03:55;;;;;;;;;9.75;9.75;;;;;14.84;64.64;101896.09;2092551;28;47320;-51
2021/10/27 03:04:55;;;;;;;;;11.00;10.00;;;;;14.83;64.68;101891.69;2099797;28;46166;-51
2021/10/27 03:05:56;;;;;;;;;13.33;12.00;;;;;14.82;64.45;101893.47;2091829;28;47229;-53
2021/10/27 03:06:57;;;;;;;;;13.00;12.00;;;;;14.82;64.56;101893.47;2092009;28;45342;-51
2021/10/27 03:07:57;;;;;;;;;14.50;12.25;;;;;14.82;64.71;101895.25;2091680;28;47379;-49
2021/10/27 03:08:58;;;;;;;;;10.00;10.00;;;;;14.81;64.67;101888.16;2092132;28;48195;-51
2021/10/27 03:09:59;;;;;;;;;10.00;10.00;;;;;14.80;64.48;101889.94;2089846;28;48080;-52
2021/10/27 03:10:59;;;;;;;;;11.33;11.33;;;;;14.80;64.28;101889.06;2083205;28;47329;-52
2021/10/27 03:12:01;;;;;;;;;12.00;11.00;;;;;14.80;64.53;101889.06;2074785;28;48120;-50
2021/10/27 03:13:01;;;;;;;;;10.25;9.75;;;;;14.80;64.57;101894.41;2083171;28;48372;-52
2021/10/27 03:14:02;;;;;;;;;12.00;11.00;;;;;14.80;64.67;101883.72;2083084;28;46579;-52
2021/10/27 03:15:03;;;;;;;;;10.00;10.00;;;;;14.79;64.39;101885.53;2085391;28;47292;-51
2021/10/27 03:16:04;;;;;;;;;9.75;9.50;;;;;14.80;64.53;101886.41;2083716;28;47445;-53
2021/10/27 03:17:04;;;;;;;;;8.67;8.67;;;;;14.78;64.48;101886.44;2082663;28;46560;-49
2021/10/27 03:18:05;;;;;;;;;11.67;11.67;;;;;14.78;64.42;101880.22;2082975;28;48221;-50
2021/10/27 03:19:05;;;;;;;;;10.67;10.67;;;;;14.77;64.37;101887.34;2092053;28;47315;-52
2021/10/27 03:20:06;;;;;;;;;11.33;9.67;;;;;14.76;64.46;101880.25;2092085;28;45429;-52
2021/10/27 03:21:07;;;;;;;;;11.75;10.50;;;;;14.77;64.90;101882.00;2089692;28;47302;-51
2021/10/27 03:22:07;;;;;;;;;17.33;15.33;;;;;14.76;64.42;101880.25;2085702;28;48195;-51
2021/10/27 03:23:08;;;;;;;;;11.33;11.00;;;;;14.76;64.30;101879.38;2091561;28;48321;-48
2021/10/27 03:24:08;;;;;;;;;12.00;11.00;;;;;14.77;64.63;101879.34;2092075;28;48127;-50
2021/10/27 03:25:09;;;;;;;;;12.00;12.00;;;;;14.75;64.61;101875.81;2091629;28;47022;-51
2021/10/27 03:26:09;;;;;;;;;13.00;13.00;;;;;14.76;64.80;101876.69;2086898;28;47475;-50
2021/10/27 03:27:10;;;;;;;;;10.00;10.00;;;;;14.75;64.35;101874.94;2091759;28;47983;-50
2021/10/27 03:28:10;;;;;;;;;16.33;13.67;;;;;14.73;64.88;101875.81;2092026;28;47748;-51
2021/10/27 03:29:11;;;;;;;;;11.00;10.00;;;;;14.74;64.54;101876.72;2082746;28;48077;-53
2021/10/27 03:30:12;;;;;;;;;9.33;8.00;;;;;14.73;64.63;101873.16;2083241;28;45255;-51
2021/10/27 03:31:14;;;;;;;;;12.67;9.67;;;;;14.73;64.71;101874.94;2091716;28;47315;-50
2021/10/27 03:32:14;;;;;;;;;10.00;9.00;;;;;14.73;64.60;101869.59;2092018;28;48180;-51
2021/10/27 03:33:15;;;;;;;;;9.00;9.00;;;;;14.72;64.48;101868.72;2091734;28;45173;-54
2021/10/27 03:34:15;;;;;;;;;9.00;9.00;;;;;14.71;64.80;101866.97;2091991;28;47135;-50
2021/10/27 03:35:16;;;;;;;;;8.33;8.00;;;;;14.71;64.81;101866.09;2091662;28;46506;-51
2021/10/27 03:36:17;;;;;;;;;11.67;10.00;;;;;14.70;64.66;101864.31;2091837;28;47948;-50
2021/10/27 03:37:17;;;;;;;;;10.00;10.00;;;;;14.70;64.73;101870.53;2091623;28;46957;-51
2021/10/27 03:38:18;;;;;;;;;13.33;11.33;;;;;14.70;65.02;101872.34;2091782;28;45282;-51
2021/10/27 03:39:19;;;;;;;;;9.67;9.00;;;;;14.70;64.64;101872.34;2091638;28;46870;-51
2021/10/27 03:40:19;;;;;;;;;12.00;11.50;;;;;14.69;64.90;101870.59;2091947;28;47327;-50
2021/10/27 03:41:20;;;;;;;;;12.33;11.33;;;;;14.68;65.01;101864.34;2091713;28;47188;-51
2021/10/27 03:42:21;;;;;;;;;12.33;12.00;;;;;14.68;64.88;101869.69;2090347;28;48413;-52
2021/10/27 03:43:21;;;;;;;;;13.33;12.00;;;;;14.68;64.64;101871.50;2084176;28;46040;-52
2021/10/27 03:44:22;;;;;;;;;14.00;11.67;;;;;14.68;64.54;101863.47;2082709;28;47149;-52
2021/10/27 03:45:22;;;;;;;;;10.67;10.00;;;;;14.67;65.17;101864.41;2091723;28;47416;-53
2021/10/27 03:46:23;;;;;;;;;12.33;11.33;;;;;14.67;65.10;101867.06;2091467;28;48119;-50
2021/10/27 03:47:24;;;;;;;;;9.75;9.75;;;;;14.67;65.10;101867.06;2091693;28;47548;-51
2021/10/27 03:48:25;;;;;;;;;11.00;11.00;;;;;14.67;64.79;101867.94;2091770;28;45295;-51
2021/10/27 03:49:26;;;;;;;;;13.00;12.00;;;;;14.67;65.00;101867.94;2091746;28;47212;-53
2021/10/27 03:50:26;;;;;;;;;12.33;10.67;;;;;14.65;64.80;101861.75;2091684;28;47500;-50
2021/10/27 03:51:27;;;;;;;;;14.33;11.33;;;;;14.67;64.67;101867.06;2086460;28;48192;-50
2021/10/27 03:52:28;;;;;;;;;11.50;10.75;;;;;14.66;64.80;101866.19;2091005;28;48011;-50
2021/10/27 03:53:28;;;;;;;;;10.00;9.00;;;;;14.66;64.83;101871.53;2091710;28;47953;-51
2021/10/27 03:54:28;;;;;;;;;14.33;13.00;;;;;14.66;64.86;101873.31;2091728;28;46739;-49
2021/10/27 03:55:29;;;;;;;;;10.33;9.67;;;;;14.66;65.06;101873.31;2091741;28;48177;-52
2021/10/27 03:56:30;;;;;;;;;14.67;10.33;;;;;14.65;64.86;101877.78;2091647;28;48051;-54
2021/10/27 03:57:30;;;;;;;;;12.00;12.00;;;;;14.65;64.92;101874.25;2091653;28;48180;-52
2021/10/27 03:58:32;;;;;;;;;12.00;12.00;;;;;14.64;64.75;101878.69;2091729;28;48236;-53
2021/10/27 03:59:33;;;;;;;;;10.25;9.25;;;;;14.64;64.97;101873.34;2091614;28;47395;-54
2021/10/27 04:00:36;;;;;;;;;11.67;11.67;;;;;14.64;64.82;101869.81;2091644;28;48082;-52
2021/10/27 04:01:37;;;;;;;;;10.00;10.00;;;;;14.65;64.69;101882.25;2091536;28;47642;-52
2021/10/27 04:02:41;;;;;;;;;13.00;13.00;;;;;14.64;64.71;101880.50;2091774;28;47538;-52
2021/10/27 04:03:42;;;;;;;;;14.00;12.50;;;;;14.64;65.05;101876.03;2082579;28;48317;-52
2021/10/27 04:04:42;;;;;;;;;11.33;11.33;;;;;14.64;65.07;101875.16;2087685;28;48458;-51
2021/10/27 04:05:43;;;;;;;;;10.67;8.67;;;;;14.64;64.91;101870.69;2091636;28;47148;-53
2021/10/27 04:06:43;;;;;;;;;14.00;12.00;;;;;14.64;65.07;101876.03;2091592;28;47269;-54
2021/10/27 04:07:44;;;;;;;;;14.67;13.67;;;;;14.64;64.91;101875.16;2091757;28;48047;-52
2021/10/27 04:08:44;;;;;;;;;12.67;11.67;;;;;14.65;65.08;101876.91;2082665;28;47059;-49
2021/10/27 04:09:45;;;;;;;;;11.00;11.00;;;;;14.64;64.97;101872.47;2082479;28;48317;-48
2021/10/27 04:10:45;;;;;;;;;4.00;4.00;;;;;14.64;64.97;101876.03;2085784;28;47198;-52
2021/10/27 04:11:46;;;;;;;;;9.00;8.00;;;;;14.62;64.61;101864.50;2091555;28;47485;-49
2021/10/27 04:12:47;;;;;;;;;11.00;11.00;;;;;14.62;64.71;101869.84;2091573;28;48191;-48
2021/10/27 04:13:47;;;;;;;;;11.00;10.00;;;;;14.61;65.00;101868.09;2091499;28;48279;-52
2021/10/27 04:14:48;;;;;;;;;9.33;8.67;;;;;14.59;65.18;101861.88;2093042;27;48187;-52
2021/10/27 04:15:49;;;;;;;;;9.75;9.75;;;;;14.59;64.71;101864.53;2099231;28;48271;-51
2021/10/27 04:16:49;;;;;;;;;9.33;9.33;;;;;14.59;64.68;101867.22;2091787;28;47535;-50
2021/10/27 04:17:50;;;;;;;;;14.00;11.67;;;;;14.60;65.01;101862.75;2082445;28;48109;-52
2021/10/27 04:18:50;;;;;;;;;10.33;10.33;;;;;14.59;65.01;101860.97;2082956;28;47390;-51
2021/10/27 04:19:51;;;;;;;;;9.00;9.00;;;;;14.59;65.01;101860.97;2091374;28;47334;-51
2021/10/27 04:20:51;;;;;;;;;12.50;10.75;;;;;14.58;65.03;101861.91;2091614;28;47996;-52
2021/10/27 04:21:52;;;;;;;;;17.67;12.33;;;;;14.57;64.69;101858.34;2088682;28;48202;-52
2021/10/27 04:22:53;;;;;;;;;10.67;10.67;;;;;14.57;65.01;101866.34;2083244;28;48154;-52
2021/10/27 04:23:53;;;;;;;;;9.67;8.67;;;;;14.57;64.74;101863.69;2085928;28;47118;-53
2021/10/27 04:24:53;;;;;;;;;10.67;10.33;;;;;14.57;65.23;101870.81;2091711;28;47223;-50
2021/10/27 04:25:54;;;;;;;;;12.33;10.67;;;;;14.57;64.99;101870.81;2091380;28;48290;-52
2021/10/27 04:26:55;;;;;;;;;9.67;9.67;;;;;14.57;64.98;101869.03;2091672;28;47387;-48
2021/10/27 04:27:55;;;;;;;;;8.33;8.33;;;;;14.56;65.13;101872.63;2091417;28;47056;-47
2021/10/27 04:28:56;;;;;;;;;10.00;10.00;;;;;14.56;64.85;101869.06;2091752;28;47333;-52
2021/10/27 04:29:56;;;;;;;;;12.67;10.67;;;;;14.56;65.21;101869.94;2091190;28;46923;-47
2021/10/27 04:30:58;;;;;;;;;9.00;8.33;;;;;14.54;64.79;101881.56;2091633;28;45432;-48
2021/10/27 04:31:58;;;;;;;;;11.00;11.00;;;;;14.55;64.75;101878.88;2091408;28;47321;-51
2021/10/27 04:32:59;;;;;;;;;11.00;11.00;;;;;14.53;64.72;101883.38;2091033;28;48257;-49
2021/10/27 04:34:00;;;;;;;;;13.00;12.75;;;;;14.53;64.60;101886.03;2091221;28;48408;-51
2021/10/27 04:35:01;;;;;;;;;13.33;12.67;;;;;14.52;64.81;101883.41;2091608;28;47260;-48
2021/10/27 04:36:01;;;;;;;;;16.00;13.00;;;;;14.50;64.75;101880.75;2091504;28;47300;-49
2021/10/27 04:37:04;;;;;;;;;11.67;11.67;;;;;14.49;64.70;101884.34;2091517;28;48726;-50
2021/10/27 04:38:05;;;;;;;;;12.50;11.75;;;;;14.48;64.65;101889.69;2091256;28;47393;-52
2021/10/27 04:39:05;;;;;;;;;11.67;11.67;;;;;14.48;64.73;101895.03;2082015;28;45395;-47
2021/10/27 04:40:09;;;;;;;;;14.00;14.00;;;;;14.46;64.95;101887.06;2082547;28;47903;-51